Time;durP1;ratioP1;P1;durP2;ratioP2;P2;SDS_P1;SDS_P2;PMS_P1;PMS_P2;Temp;Humidity;BMP_temperature;BMP_pressure;BME280_temperature;BME280_humidity;BME280_pressure;Samples;Min_cycle;Max_cycle;Signal;HPM_P1;HPM_P2
2023/07/25 00:01:14;;;;;;;18.57;1.20;;;;;;;26.20;54.41;98230.03;7316138;19;130267;-37
2023/07/25 00:03:40;;;;;;;51.60;3.10;;;;;;;26.19;54.32;98238.94;7313330;19;129165;-41
2023/07/25 00:06:06;;;;;;;42.20;2.40;;;;;;;26.21;54.30;98232.47;7314916;19;129070;-42
2023/07/25 00:08:31;;;;;;;28.07;1.73;;;;;;;26.20;54.47;98225.56;7315290;19;129137;-39
2023/07/25 00:10:57;;;;;;;23.77;1.50;;;;;;;26.18;53.85;98232.06;7315865;19;130743;-41
2023/07/25 00:13:23;;;;;;;27.53;1.80;;;;;;;25.63;51.43;98225.25;7313289;19;130449;-37
2023/07/25 00:15:50;;;;;;;60.33;3.60;;;;;;;25.56;50.67;98230.50;7314816;19;130316;-42
2023/07/25 00:18:15;;;;;;;36.70;2.13;;;;;;;25.51;50.47;98234.72;7315587;19;129445;-41
2023/07/25 00:20:41;;;;;;;55.13;3.50;;;;;;;25.89;54.14;98238.47;7313446;19;129576;-39
2023/07/25 00:23:06;;;;;;;30.03;1.77;;;;;;;26.04;54.25;98241.78;7314206;19;129698;-40
2023/07/25 00:25:31;;;;;;;43.77;2.50;;;;;;;26.11;54.39;98245.25;7313168;19;131261;-38
2023/07/25 00:27:57;;;;;;;39.30;2.40;;;;;;;26.14;54.62;98247.47;7314089;19;129268;-39
2023/07/25 00:30:24;;;;;;;11.47;0.77;;;;;;;26.16;54.46;98250.72;7313353;19;129594;-39
2023/07/25 00:32:49;;;;;;;32.13;1.88;;;;;;;26.19;54.47;98252.94;7312028;19;131190;-39
2023/07/25 00:35:14;;;;;;;48.57;2.73;;;;;;;26.21;54.75;98252.75;7314007;19;129794;-41
2023/07/25 00:37:40;;;;;;;33.33;1.97;;;;;;;26.21;54.07;98240.38;7313865;19;129098;-41
2023/07/25 00:40:06;;;;;;;62.37;3.93;;;;;;;26.21;54.59;98232.47;7313434;19;129478;-37
2023/07/25 00:42:31;;;;;;;14.47;1.07;;;;;;;26.22;54.99;98230.63;7313755;19;130753;-42
2023/07/25 00:44:56;;;;;;;38.63;2.13;;;;;;;26.22;54.62;98234.09;7313041;19;130062;-40
2023/07/25 00:47:22;;;;;;;26.77;1.73;;;;;;;26.22;54.71;98238.53;7313360;19;129059;-42
2023/07/25 00:49:49;;;;;;;50.45;2.97;;;;;;;26.22;54.77;98244.63;7313066;19;129530;-40
2023/07/25 00:52:15;;;;;;;68.05;4.05;;;;;;;25.77;51.29;98242.69;7313219;19;129796;-42
2023/07/25 00:54:47;;;;;;;25.40;1.70;;;;;;;25.62;50.69;98242.88;7315542;19;129272;-40
2023/07/25 00:57:12;;;;;;;57.05;3.38;;;;;;;25.55;50.42;98244.66;7313745;19;129201;-41
2023/07/25 00:59:37;;;;;;;23.20;1.43;;;;;;;25.82;53.81;98242.13;7315625;19;129301;-42
2023/07/25 01:02:03;;;;;;;30.93;1.70;;;;;;;26.01;54.07;98242.19;7313105;19;130582;-41
2023/07/25 01:04:29;;;;;;;78.07;4.67;;;;;;;26.11;54.00;98247.06;7312771;19;130103;-40
2023/07/25 01:06:56;;;;;;;17.07;1.10;;;;;;;26.08;53.80;98242.97;7312177;19;129474;-39
2023/07/25 01:09:46;;;;;;;34.13;2.05;;;;;;;26.20;54.54;98251.91;7313427;19;130227;-42
2023/07/25 01:12:12;;;;;;;28.65;1.67;;;;;;;26.20;54.48;98257.19;7313339;19;130988;-40
2023/07/25 01:14:39;;;;;;;56.60;3.42;;;;;;;26.21;54.74;98248.28;7312506;19;130233;-41
2023/07/25 01:17:18;;;;;;;73.78;4.40;;;;;;;26.24;54.70;98250.53;7312580;19;129119;-40
2023/07/25 01:19:46;;;;;;;72.20;4.25;;;;;;;26.21;54.59;98256.19;7312712;19;130458;-38
2023/07/25 01:22:12;;;;;;;26.52;1.65;;;;;;;26.21;54.45;98258.84;7312772;19;131087;-41
2023/07/25 01:24:42;;;;;;;42.65;2.67;;;;;;;26.20;54.97;98257.19;7311399;19;129049;-40
2023/07/25 01:27:08;;;;;;;63.80;3.90;;;;;;;26.21;54.31;98258.84;7312354;19;128826;-42
2023/07/25 01:29:33;;;;;;;23.97;1.53;;;;;;;26.22;54.78;98262.25;7312408;19;130763;-42
2023/07/25 01:31:58;;;;;;;41.10;2.43;;;;;;;25.83;51.31;98263.00;7310920;19;129598;-40
2023/07/25 01:34:24;;;;;;;26.60;1.67;;;;;;;25.58;50.29;98261.91;7312742;19;128911;-40
2023/07/25 01:36:49;;;;;;;62.43;3.73;;;;;;;25.54;50.67;98258.84;7311883;19;129570;-38
2023/07/25 01:39:14;;;;;;;31.53;1.80;;;;;;;25.74;54.02;98253.63;7313211;19;131628;-41
2023/07/25 01:41:41;;;;;;;26.87;1.63;;;;;;;25.97;54.06;98251.47;7313352;19;129844;-42
2023/07/25 01:44:06;;;;;;;56.15;3.47;;;;;;;26.08;54.18;98252.72;7309754;19;130598;-41
2023/07/25 01:46:32;;;;;;;55.60;3.30;;;;;;;26.13;54.30;98259.00;7311581;19;129064;-38
2023/07/25 01:48:57;;;;;;;28.47;1.73;;;;;;;26.18;54.32;98266.31;7312837;19;129956;-42
2023/07/25 01:51:22;;;;;;;23.50;1.47;;;;;;;26.18;53.83;98256.56;7311467;19;129454;-42
2023/07/25 01:53:48;;;;;;;30.43;1.77;;;;;;;26.21;54.30;98256.19;7309936;19;129133;-42
2023/07/25 01:56:13;;;;;;;78.07;4.67;;;;;;;26.23;54.37;98250.72;7311579;19;129287;-34
2023/07/25 01:58:38;;;;;;;31.67;2.00;;;;;;;26.22;54.40;98255.16;7312479;19;130140;-41
2023/07/25 02:01:04;;;;;;;27.37;1.60;;;;;;;26.20;54.59;98251.09;7311998;19;129231;-40
2023/07/25 02:03:29;;;;;;;55.77;3.57;;;;;;;26.22;54.26;98255.16;7310117;19;130259;-38
2023/07/25 02:05:55;;;;;;;54.27;3.23;;;;;;;26.22;54.86;98254.34;7309844;19;129358;-42
2023/07/25 02:08:20;;;;;;;27.80;1.73;;;;;;;26.23;54.72;98250.72;7310664;19;129090;-41
2023/07/25 02:10:45;;;;;;;38.57;2.07;;;;;;;25.86;51.08;98254.69;7310778;19;129115;-43
2023/07/25 02:13:10;;;;;;;40.13;2.30;;;;;;;25.61;50.94;98254.41;7310077;19;129312;-42
2023/07/25 02:15:37;;;;;;;65.20;3.80;;;;;;;25.56;50.26;98263.91;7310686;19;129147;-37
2023/07/25 02:18:03;;;;;;;26.30;1.60;;;;;;;25.73;54.36;98259.09;7310319;19;129660;-41
2023/07/25 02:20:31;;;;;;;7.18;0.65;;;;;;;26.00;54.42;98260.78;7311834;19;130318;-39
2023/07/25 02:22:58;;;;;;;23.88;1.35;;;;;;;26.08;54.28;98258.78;7310556;19;129147;-39
2023/07/25 02:25:24;;;;;;;49.20;2.92;;;;;;;26.12;54.77;98260.03;7309672;19;128805;-42
2023/07/25 02:27:50;;;;;;;;;;;;;;;26.28;54.32;98270.16;7310773;19;129470;-40
2023/07/25 02:30:15;;;;;;;24.17;1.37;;;;;;;26.22;53.90;98267.53;7312253;19;130206;-41
2023/07/25 02:32:40;;;;;;;34.60;2.07;;;;;;;26.23;54.64;98263.91;7311075;19;129894;-41
2023/07/25 02:35:06;;;;;;;35.07;2.00;;;;;;;26.21;54.48;98258.84;7311709;19;128949;-42
2023/07/25 02:37:31;;;;;;;33.27;1.90;;;;;;;26.22;54.60;98256.97;7309924;19;129022;-41
2023/07/25 02:39:56;;;;;;;59.37;3.70;;;;;;;26.22;54.63;98255.16;7309810;19;129836;-41
2023/07/25 02:42:22;;;;;;;30.63;1.83;;;;;;;26.12;54.53;98238.94;7310106;19;129223;-41
2023/07/25 02:44:47;;;;;;;29.07;1.67;;;;;;;26.21;54.29;98250.94;7310023;19;129597;-39
2023/07/25 02:47:12;;;;;;;59.00;3.53;;;;;;;26.19;54.41;98245.03;7308689;19;129184;-40
2023/07/25 02:49:38;;;;;;;27.80;1.73;;;;;;;26.08;52.29;98253.53;7310477;19;130572;-43
2023/07/25 02:52:05;;;;;;;51.27;2.90;;;;;;;25.71;50.67;98251.41;7309224;19;128981;-40
2023/07/25 02:54:30;;;;;;;24.35;1.60;;;;;;;25.56;50.85;98250.75;7310515;19;130854;-42
2023/07/25 02:56:55;;;;;;;31.40;2.03;;;;;;;25.55;51.90;98246.50;7309726;19;129404;-40
2023/07/25 02:59:21;;;;;;;58.57;3.63;;;;;;;25.92;54.41;98259.16;7309701;19;129656;-43
2023/07/25 03:01:46;;;;;;;43.13;2.40;;;;;;;26.06;54.06;98258.19;7311374;19;129738;-42
2023/07/25 03:04:11;;;;;;;23.50;1.63;;;;;;;26.13;53.77;98264.25;7308638;19;129218;-35
2023/07/25 03:06:37;;;;;;;43.57;2.27;;;;;;;26.18;53.89;98258.41;7310920;19;129299;-39
2023/07/25 03:09:03;;;;;;;35.13;2.07;;;;;;;26.20;54.35;98257.19;7310358;19;130120;-42
2023/07/25 03:11:28;;;;;;;70.60;3.97;;;;;;;26.22;54.16;98263.06;7310685;19;128994;-40
2023/07/25 03:13:53;;;;;;;31.53;1.83;;;;;;;26.20;54.22;98259.81;7307706;19;128860;-41
2023/07/25 03:16:19;;;;;;;48.20;3.10;;;;;;;26.12;54.42;98254.75;7308341;19;131026;-38
2023/07/25 03:18:44;;;;;;;37.13;2.13;;;;;;;26.21;54.17;98268.56;7309806;19;130246;-40
2023/07/25 03:21:09;;;;;;;33.23;2.03;;;;;;;26.16;54.53;98261.25;7311499;19;129868;-41
2023/07/25 03:23:35;;;;;;;43.53;2.67;;;;;;;26.22;54.17;98270.97;7308003;19;128969;-42
2023/07/25 03:26:00;;;;;;;46.77;2.80;;;;;;;26.12;54.83;98254.75;7306860;19;129177;-39
2023/07/25 03:28:25;;;;;;;68.17;3.83;;;;;;;26.23;54.56;98272.59;7308450;19;130294;-41
2023/07/25 03:30:51;;;;;;;26.43;1.53;;;;;;;25.81;51.76;98279.97;7313655;19;129538;-41
2023/07/25 03:33:16;;;;;;;15.50;0.90;;;;;;;25.62;50.78;98279.72;7315271;19;129636;-41
2023/07/25 03:35:42;;;;;;;32.57;2.03;;;;;;;25.59;50.44;98287.19;7315600;19;129172;-42
2023/07/25 03:38:07;;;;;;;53.27;2.83;;;;;;;25.80;53.80;98289.69;7316855;19;130289;-41
2023/07/25 03:40:32;;;;;;;72.93;4.30;;;;;;;26.04;53.97;98283.94;7315761;19;129119;-39
2023/07/25 03:42:58;;;;;;;24.20;1.43;;;;;;;26.13;54.32;98287.97;7315640;19;128756;-40
2023/07/25 03:45:23;;;;;;;24.83;1.53;;;;;;;26.10;54.28;98272.56;7316701;19;130534;-41
2023/07/25 03:47:48;;;;;;;46.40;2.67;;;;;;;26.12;54.38;98267.09;7314424;19;129289;-40
2023/07/25 03:50:14;;;;;;;15.07;1.00;;;;;;;26.22;54.22;98278.88;7317603;19;129864;-43
2023/07/25 03:52:39;;;;;;;57.20;3.50;;;;;;;26.24;54.00;98273.41;7314485;19;128911;-42
2023/07/25 03:55:05;;;;;;;38.77;2.27;;;;;;;26.24;54.37;98273.41;7316127;19;130168;-40
2023/07/25 03:57:31;;;;;;;20.15;1.40;;;;;;;26.23;54.88;98277.06;7313065;19;131417;-40
2023/07/25 03:59:56;;;;;;;12.07;0.93;;;;;;;26.14;54.35;98268.53;7315139;19;128798;-40
2023/07/25 04:02:21;;;;;;;28.97;1.70;;;;;;;26.23;54.92;98283.13;7316208;19;129922;-38
2023/07/25 04:04:47;;;;;;;71.97;4.27;;;;;;;26.13;54.71;98269.53;7313947;19;131057;-39
2023/07/25 04:07:12;;;;;;;72.13;4.20;;;;;;;26.23;54.76;98287.59;7315133;19;129077;-38
2023/07/25 04:09:37;;;;;;;23.87;1.47;;;;;;;25.87;51.59;98285.25;7315667;19;128934;-41
2023/07/25 04:12:03;;;;;;;55.93;3.20;;;;;;;25.64;50.96;98276.88;7312703;19;129672;-41
2023/07/25 04:14:28;;;;;;;37.97;2.17;;;;;;;25.58;50.65;98278.47;7315623;19;129846;-42
2023/07/25 04:16:54;;;;;;;57.00;3.47;;;;;;;25.67;53.92;98273.84;7315239;19;130840;-41
2023/07/25 04:19:19;;;;;;;29.40;1.93;;;;;;;25.96;53.68;98265.66;7315172;19;129948;-41
2023/07/25 04:21:44;;;;;;;24.47;1.43;;;;;;;26.09;54.20;98259.59;7314661;19;129002;-41
2023/07/25 04:24:10;;;;;;;44.57;2.47;;;;;;;26.14;54.20;98260.63;7311538;19;130423;-42
2023/07/25 04:26:35;;;;;;;33.13;1.90;;;;;;;26.07;53.99;98246.63;7314975;19;130452;-39
2023/07/25 04:29:01;;;;;;;58.03;3.67;;;;;;;26.16;54.47;98261.25;7313353;19;130241;-42
2023/07/25 04:31:26;;;;;;;19.80;1.23;;;;;;;26.21;54.46;98260.66;7314429;19;130659;-42
2023/07/25 04:33:51;;;;;;;36.13;2.17;;;;;;;26.20;54.38;98254.56;7312614;19;129698;-41
2023/07/25 04:36:16;;;;;;;24.00;1.50;;;;;;;26.23;54.36;98256.00;7313329;19;129204;-41
2023/07/25 04:38:42;;;;;;;31.63;1.80;;;;;;;26.22;54.79;98260.44;7313688;19;128956;-41
2023/07/25 04:41:07;;;;;;;78.67;4.57;;;;;;;26.24;54.39;98271.59;7311257;19;128918;-42
2023/07/25 04:43:32;;;;;;;30.30;1.93;;;;;;;26.24;54.48;98276.88;7312886;19;129002;-40
2023/07/25 04:45:58;;;;;;;23.47;1.40;;;;;;;26.25;54.36;98286.38;7312221;19;129370;-38
2023/07/25 04:48:23;;;;;;;9.83;0.80;;;;;;;26.08;52.02;98279.88;7312881;19;129526;-39
2023/07/25 04:50:48;;;;;;;49.17;2.67;;;;;;;25.67;51.42;98292.28;7313867;19;128818;-41
2023/07/25 04:53:14;;;;;;;72.27;4.30;;;;;;;25.57;51.42;98286.56;7312179;19;130670;-40
2023/07/25 04:55:39;;;;;;;29.57;1.80;;;;;;;25.57;51.62;98286.56;7313525;19;129631;-42
2023/07/25 04:58:04;;;;;;;9.23;0.70;;;;;;;25.92;54.27;98282.03;7313864;19;129923;-38
2023/07/25 05:00:30;;;;;;;45.50;2.57;;;;;;;26.06;54.52;98287.19;7313730;19;129216;-39
2023/07/25 05:02:55;;;;;;;41.97;2.27;;;;;;;26.13;54.16;98295.88;7313675;19;130906;-42
2023/07/25 05:05:21;;;;;;;58.43;3.60;;;;;;;26.16;53.97;98303.41;7311308;19;130648;-39
2023/07/25 05:07:46;;;;;;;24.40;1.50;;;;;;;26.19;54.37;98308.28;7312841;19;128969;-40
2023/07/25 05:10:11;;;;;;;45.53;2.60;;;;;;;26.17;54.30;98298.94;7312297;19;129164;-40
2023/07/25 05:12:37;;;;;;;24.47;1.53;;;;;;;26.20;54.21;98303.78;7312992;19;130854;-36
2023/07/25 05:15:03;;;;;;;25.83;1.50;;;;;;;26.19;54.91;98305.63;7313482;19;131034;-38
2023/07/25 05:17:28;;;;;;;65.38;3.92;;;;;;;26.22;54.38;98310.50;7312054;19;129157;-42
2023/07/25 05:19:54;;;;;;;33.87;2.03;;;;;;;26.23;54.72;98312.13;7313621;19;129115;-40
2023/07/25 05:22:19;;;;;;;20.33;1.27;;;;;;;26.23;54.48;98314.75;7313100;19;129863;-39
2023/07/25 05:24:45;;;;;;;29.00;1.70;;;;;;;26.24;54.63;98321.66;7310848;19;129321;-42
2023/07/25 05:27:10;;;;;;;68.77;4.23;;;;;;;25.91;51.65;98315.47;7312181;19;130475;-41
2023/07/25 05:29:35;;;;;;;60.30;3.57;;;;;;;25.66;50.76;98309.91;7312429;19;128988;-41
2023/07/25 05:32:01;;;;;;;25.20;1.50;;;;;;;25.62;50.71;98315.75;7312704;19;129003;-41
2023/07/25 05:34:26;;;;;;;23.43;1.40;;;;;;;25.64;52.91;98319.00;7311711;19;129608;-39
2023/07/25 05:36:51;;;;;;;35.93;2.13;;;;;;;25.88;54.09;98315.88;7312379;19;129203;-41
2023/07/25 05:39:17;;;;;;;28.80;1.63;;;;;;;26.09;54.17;98322.84;7312666;19;130105;-43
2023/07/25 05:41:42;;;;;;;56.47;3.47;;;;;;;26.15;53.73;98329.94;7312834;19;130412;-40
2023/07/25 05:44:08;;;;;;;25.07;1.43;;;;;;;26.15;54.38;98333.38;7309870;19;130379;-42
2023/07/25 05:46:34;;;;;;;55.47;2.97;;;;;;;26.17;53.88;98331.38;7309041;19;129242;-40
2023/07/25 05:48:59;;;;;;;29.80;1.73;;;;;;;26.20;54.41;98336.22;7312245;19;129450;-42
2023/07/25 05:51:24;;;;;;;27.10;1.60;;;;;;;26.22;54.18;98330.75;7310651;19;132189;-42
2023/07/25 05:53:50;;;;;;;68.47;4.13;;;;;;;26.21;54.40;98332.59;7307709;19;130302;-40
2023/07/25 05:56:15;;;;;;;41.13;2.27;;;;;;;26.21;54.08;98332.59;7313360;19;130408;-42
2023/07/25 05:58:40;;;;;;;57.40;3.37;;;;;;;26.22;54.95;98334.22;7311525;19;128958;-39
2023/07/25 06:01:06;;;;;;;24.03;1.43;;;;;;;26.22;54.52;98331.59;7312764;19;130249;-42
2023/07/25 06:03:31;;;;;;;20.47;1.33;;;;;;;26.22;54.78;98334.22;7310663;19;129551;-42
2023/07/25 06:05:57;;;;;;;54.93;3.20;;;;;;;25.97;51.85;98330.47;7311006;19;131299;-42
2023/07/25 06:08:22;;;;;;;29.33;1.73;;;;;;;25.66;50.93;98338.88;7312050;19;129078;-39
2023/07/25 06:10:48;;;;;;;56.97;3.47;;;;;;;25.56;50.30;98348.13;7311193;19;129917;-40
2023/07/25 06:13:13;;;;;;;38.03;2.17;;;;;;;25.65;53.23;98357.50;7310468;19;129190;-40
2023/07/25 06:15:39;;;;;;;21.23;1.37;;;;;;;25.95;54.05;98350.91;7312882;19;128871;-38
2023/07/25 06:18:04;;;;;;;23.50;1.37;;;;;;;26.07;54.17;98346.75;7311550;19;130211;-40
2023/07/25 06:20:33;;;;;;;27.30;1.57;;;;;;;26.06;54.45;98339.84;7312253;19;130910;-42
2023/07/25 06:22:59;;;;;;;74.75;4.47;;;;;;;26.14;54.29;98350.22;7308618;19;129193;-43
2023/07/25 06:25:25;;;;;;;37.50;2.08;;;;;;;26.15;54.30;98337.84;7311101;19;129617;-38
2023/07/25 06:27:51;;;;;;;42.95;2.67;;;;;;;26.19;54.44;98334.63;7309940;19;129043;-39
2023/07/25 06:30:16;;;;;;;14.07;0.90;;;;;;;26.20;54.54;98330.97;7311227;19;130134;-42
2023/07/25 06:32:42;;;;;;;52.57;2.90;;;;;;;26.21;54.85;98335.25;7311043;19;132995;-42
2023/07/25 06:35:07;;;;;;;39.93;2.27;;;;;;;26.21;54.59;98337.06;7311727;19;128817;-40
2023/07/25 06:37:34;;;;;;;8.40;0.70;;;;;;;26.20;54.65;98336.22;7311107;19;130897;-42
2023/07/25 06:40:00;;;;;;;51.70;3.08;;;;;;;26.20;55.25;98323.06;7311362;19;130032;-39
2023/07/25 06:42:28;;;;;;;42.55;2.63;;;;;;;26.20;55.21;98330.16;7309103;19;129330;-40
2023/07/25 06:44:53;;;;;;;35.78;2.05;;;;;;;25.96;51.48;98328.84;7310595;19;128970;-40
2023/07/25 06:47:19;;;;;;;9.93;0.80;;;;;;;25.63;50.49;98336.59;7308584;19;129142;-41
2023/07/25 06:49:44;;;;;;;23.70;1.40;;;;;;;25.51;50.74;98334.75;7309977;19;129806;-37
2023/07/25 06:52:09;;;;;;;77.03;4.47;;;;;;;25.52;53.74;98310.03;7309164;19;129216;-40
2023/07/25 06:54:36;;;;;;;10.50;0.87;;;;;;;25.94;54.14;98324.78;7311730;19;129698;-40
2023/07/25 06:57:01;;;;;;;73.93;4.63;;;;;;;26.06;54.27;98316.16;7308923;19;128957;-40
2023/07/25 06:59:29;;;;;;;51.47;2.63;;;;;;;26.13;53.86;98303.78;7311315;19;130481;-38
2023/07/25 07:01:55;;;;;;;50.20;2.72;;;;;;;26.17;54.31;98305.03;7311083;19;129500;-41
2023/07/25 07:04:20;;;;;;;45.40;2.43;;;;;;;26.18;54.36;98300.56;7308584;19;129075;-41
2023/07/25 07:06:45;;;;;;;33.30;2.00;;;;;;;26.20;53.88;98301.97;7313678;19;129261;-41
2023/07/25 07:09:10;;;;;;;40.43;2.47;;;;;;;26.21;54.47;98285.19;7315746;19;129834;-42
2023/07/25 07:11:36;;;;;;;37.23;2.07;;;;;;;26.21;54.40;98287.00;7316972;19;129537;-39
2023/07/25 07:14:01;;;;;;;21.60;1.33;;;;;;;26.22;54.23;98281.53;7315036;19;128995;-41
2023/07/25 07:16:26;;;;;;;25.80;1.60;;;;;;;26.16;54.71;98271.78;7315281;19;130061;-39
2023/07/25 07:18:52;;;;;;;45.40;2.60;;;;;;;26.19;54.56;98260.03;7317893;19;132163;-38
2023/07/25 07:21:17;;;;;;;29.17;1.73;;;;;;;26.21;54.54;98256.19;7316647;19;130263;-41
2023/07/25 07:23:42;;;;;;;18.07;1.27;;;;;;;25.81;51.01;98254.47;7316278;19;129088;-39
2023/07/25 07:26:08;;;;;;;28.07;1.67;;;;;;;25.56;51.05;98259.47;7315334;19;130134;-40
2023/07/25 07:28:33;;;;;;;39.70;2.23;;;;;;;25.52;50.42;98260.84;7317335;19;129297;-39
2023/07/25 07:30:58;;;;;;;30.93;1.87;;;;;;;25.73;54.27;98274.91;7317727;19;129239;-42
2023/07/25 07:33:24;;;;;;;10.87;0.83;;;;;;;25.99;53.93;98264.44;7315496;19;129917;-42
2023/07/25 07:35:49;;;;;;;35.13;2.00;;;;;;;26.09;54.37;98264.88;7317610;19;129841;-37
2023/07/25 07:38:15;;;;;;;63.43;3.57;;;;;;;26.14;54.09;98263.28;7315603;19;130540;-37
2023/07/25 07:40:40;;;;;;;13.10;0.87;;;;;;;26.17;53.89;98268.13;7317733;19;129473;-41
2023/07/25 07:43:05;;;;;;;29.23;1.63;;;;;;;26.19;54.17;98266.13;7315601;19;130111;-39
2023/07/25 07:45:31;;;;;;;56.87;3.37;;;;;;;26.19;54.32;98258.22;7314374;19;129619;-38
2023/07/25 07:47:56;;;;;;;29.53;1.70;;;;;;;26.19;54.81;98255.59;7316998;19;130876;-42
2023/07/25 07:50:22;;;;;;;54.67;3.33;;;;;;;26.21;54.38;98263.28;7316465;19;130361;-37
2023/07/25 07:52:48;;;;;;;27.87;1.90;;;;;;;26.20;54.96;98267.72;7315916;19;130637;-38
2023/07/25 07:55:15;;;;;;;39.25;2.22;;;;;;;26.11;54.58;98253.16;7316813;19;131183;-41
2023/07/25 07:57:44;;;;;;;;;;;;;;;26.30;54.70;98267.31;7315328;19;130136;-41
2023/07/25 08:00:11;;;;;;;55.97;3.03;;;;;;;26.22;55.04;98270.97;7316451;19;129584;-41
2023/07/25 08:02:37;;;;;;;42.70;2.55;;;;;;;25.70;51.09;98265.59;7314477;19;130679;-42
2023/07/25 08:05:02;;;;;;;37.53;2.20;;;;;;;25.58;51.58;98270.59;7315931;19;129843;-42
2023/07/25 08:07:27;;;;;;;69.73;4.10;;;;;;;25.49;51.31;98265.69;7314508;19;130913;-37
2023/07/25 08:09:56;;;;;;;4.50;0.50;;;;;;;25.80;54.43;98260.72;7316113;19;131300;-41
2023/07/25 08:12:22;;;;;;;23.50;1.42;;;;;;;25.99;54.03;98259.16;7314322;19;128977;-40
2023/07/25 08:14:48;;;;;;;30.53;1.63;;;;;;;26.09;54.11;98260.44;7315451;19;129165;-39
2023/07/25 08:17:14;;;;;;;46.43;2.90;;;;;;;26.13;54.70;98274.81;7313389;19;129148;-41
2023/07/25 08:19:39;;;;;;;62.50;3.60;;;;;;;26.15;54.40;98272.78;7313999;19;129685;-42
2023/07/25 08:22:05;;;;;;;34.63;1.87;;;;;;;26.18;54.54;98275.00;7314694;19;129298;-40
2023/07/25 08:24:32;;;;;;;45.30;2.80;;;;;;;26.19;54.31;98276.66;7314095;19;128843;-39
2023/07/25 08:26:59;;;;;;;40.05;2.35;;;;;;;26.18;54.08;98275.00;7312214;19;130067;-35
2023/07/25 08:29:24;;;;;;;24.17;1.45;;;;;;;26.19;54.60;98278.47;7315980;19;129099;-38
2023/07/25 08:31:50;;;;;;;7.87;0.60;;;;;;;26.18;54.89;98269.75;7314748;19;129090;-40
2023/07/25 08:34:15;;;;;;;40.30;2.27;;;;;;;26.19;54.75;98271.38;7312457;19;129753;-40
2023/07/25 08:36:40;;;;;;;78.73;4.70;;;;;;;26.18;54.35;98267.13;7313556;19;129584;-39
2023/07/25 08:39:06;;;;;;;24.10;1.37;;;;;;;26.11;52.53;98258.41;7314563;19;132762;-40
2023/07/25 08:41:35;;;;;;;29.73;1.80;;;;;;;25.66;51.36;98280.16;7314578;19;129347;-40
2023/07/25 08:44:02;;;;;;;35.97;2.00;;;;;;;25.42;50.69;98264.88;7312540;19;129828;-41
2023/07/25 08:46:28;;;;;;;30.17;1.67;;;;;;;25.49;52.31;98284.13;7311992;19;130031;-42
2023/07/25 08:49:00;;;;;;;34.28;2.17;;;;;;;25.84;54.46;98285.66;7312928;19;130407;-42
2023/07/25 08:51:27;;;;;;;21.23;1.20;;;;;;;26.01;54.42;98286.97;7314684;19;129099;-41
2023/07/25 08:54:02;;;;;;;52.53;3.10;;;;;;;26.10;54.75;98282.31;7311220;19;130070;-42
2023/07/25 08:56:29;;;;;;;46.05;2.50;;;;;;;26.13;54.20;98292.47;7313679;19;131270;-42
2023/07/25 08:58:55;;;;;;;40.60;2.30;;;;;;;26.07;54.24;98277.44;7313118;19;130423;-41
2023/07/25 09:01:21;;;;;;;29.30;1.63;;;;;;;26.19;54.02;98289.84;7314011;19;128991;-41
2023/07/25 09:03:48;;;;;;;31.73;1.77;;;;;;;26.20;54.41;98288.81;7310543;19;129395;-41
2023/07/25 09:06:14;;;;;;;40.03;2.22;;;;;;;26.20;54.78;98288.81;7311268;19;130135;-42
2023/07/25 09:08:40;;;;;;;27.17;1.50;;;;;;;26.20;54.54;98283.53;7313780;19;131137;-40
2023/07/25 09:11:08;;;;;;;46.10;2.37;;;;;;;26.19;54.82;98275.84;7312663;19;129279;-39
2023/07/25 09:13:34;;;;;;;31.77;1.75;;;;;;;26.19;54.86;98286.38;7311174;19;128846;-42
2023/07/25 09:15:59;;;;;;;43.93;2.50;;;;;;;26.15;54.85;98275.41;7311722;19;131173;-42
2023/07/25 09:18:25;;;;;;;27.10;1.50;;;;;;;26.19;54.54;98283.75;7315011;19;129214;-39
2023/07/25 09:20:50;;;;;;;24.60;1.37;;;;;;;25.71;51.37;98285.63;7315457;19;128868;-41
2023/07/25 09:23:21;;;;;;;28.70;1.63;;;;;;;25.57;51.56;98279.50;7313650;19;129360;-39
2023/07/25 09:25:47;;;;;;;71.35;4.07;;;;;;;25.53;50.80;98270.38;7312224;19;131854;-38
2023/07/25 09:28:13;;;;;;;55.97;3.28;;;;;;;25.85;53.71;98260.16;7311456;19;130126;-40
2023/07/25 09:30:47;;;;;;;18.93;1.27;;;;;;;26.02;54.07;98267.50;7313582;19;129319;-40
2023/07/25 09:33:27;;;;;;;49.85;3.10;;;;;;;26.10;54.38;98267.31;7310493;19;129045;-38
2023/07/25 09:35:53;;;;;;;44.65;2.80;;;;;;;26.08;54.43;98269.31;7312079;19;130266;-40
2023/07/25 09:38:19;;;;;;;69.37;3.97;;;;;;;26.14;54.33;98268.53;7312737;19;130661;-41
2023/07/25 09:40:48;;;;;;;27.93;1.67;;;;;;;26.16;54.65;98266.53;7313919;19;129343;-40
2023/07/25 09:43:23;;;;;;;52.75;3.15;;;;;;;26.20;54.64;98273.00;7310199;19;131191;-42
2023/07/25 09:45:53;;;;;;;34.08;2.00;;;;;;;26.19;54.49;98270.56;7311003;19;129278;-37
2023/07/25 09:48:19;;;;;;;51.25;3.15;;;;;;;26.20;54.46;98270.38;7312030;19;130463;-39
2023/07/25 09:50:45;;;;;;;35.40;2.07;;;;;;;26.19;54.64;98266.13;7313993;19;129196;-42
2023/07/25 09:53:12;;;;;;;32.27;1.83;;;;;;;26.19;54.79;98265.31;7310904;19;129312;-38
2023/07/25 09:55:38;;;;;;;26.65;1.52;;;;;;;26.18;54.46;98258.41;7312418;19;132501;-41
2023/07/25 09:58:04;;;;;;;26.30;1.40;;;;;;;25.77;51.57;98247.19;7311497;19;129662;-42
2023/07/25 10:00:30;;;;;;;49.08;2.72;;;;;;;25.63;50.76;98246.31;7312729;19;131087;-39
2023/07/25 10:02:57;;;;;;;20.07;1.10;;;;;;;25.52;50.48;98252.13;7312902;19;130594;-41
2023/07/25 10:05:22;;;;;;;;;;;;;;;25.79;54.50;98250.41;7311551;19;130288;-40
2023/07/25 10:07:49;;;;;;;28.48;1.60;;;;;;;25.92;54.16;98243.34;7311940;19;129995;-39
2023/07/25 10:10:15;;;;;;;;;;;;;;;26.13;54.02;98247.66;7312269;19;128950;-38
2023/07/25 10:12:41;;;;;;;34.10;2.03;;;;;;;26.09;53.98;98247.25;7311059;19;129193;-37
2023/07/25 10:15:06;;;;;;;25.60;1.57;;;;;;;26.09;54.51;98247.25;7312197;19;130067;-40
2023/07/25 10:17:32;;;;;;;72.17;4.20;;;;;;;26.14;54.39;98252.75;7308955;19;129505;-42
2023/07/25 10:19:58;;;;;;;32.23;1.80;;;;;;;26.14;54.54;98247.47;7312278;19;130637;-40
2023/07/25 10:22:34;;;;;;;22.40;1.40;;;;;;;26.17;54.40;98244.44;7311789;19;129226;-39
2023/07/25 10:25:00;;;;;;;25.33;1.53;;;;;;;26.16;54.79;98242.81;7311954;19;130210;-39
2023/07/25 10:27:26;;;;;;;30.03;1.77;;;;;;;26.16;54.73;98253.34;7307400;19;129372;-36
2023/07/25 10:29:51;;;;;;;46.22;2.75;;;;;;;26.15;54.32;98243.00;7310683;19;129430;-32
2023/07/25 10:32:39;;;;;;;28.13;1.53;;;;;;;26.17;55.00;98251.50;7311203;19;128979;-33
2023/07/25 10:35:05;;;;;;;28.98;1.83;;;;;;;26.15;55.00;98254.34;7311295;19;129461;-33
2023/07/25 10:37:40;;;;;;;29.43;1.70;;;;;;;25.68;51.94;98249.16;7310664;19;130447;-34
2023/07/25 10:40:10;;;;;;;5.55;0.43;;;;;;;25.43;50.94;98233.09;7310351;19;128966;-38
2023/07/25 10:42:59;;;;;;;35.50;2.00;;;;;;;25.50;53.36;98233.91;7310583;19;129037;-40
2023/07/25 10:45:27;;;;;;;34.55;1.92;;;;;;;25.83;54.98;98233.19;7309756;19;129377;-39
2023/07/25 10:47:53;;;;;;;35.70;2.33;;;;;;;26.00;54.12;98245.00;7308860;19;131019;-39
2023/07/25 10:50:19;;;;;;;42.50;2.43;;;;;;;26.06;54.37;98234.50;7310551;19;129909;-37
2023/07/25 10:52:45;;;;;;;;;;;;;;;26.18;54.65;98235.50;7310878;19;131106;-36
2023/07/25 10:55:11;;;;;;;73.95;4.30;;;;;;;26.13;54.62;98230.03;7309218;19;128984;-38
2023/07/25 10:57:37;;;;;;;34.60;1.90;;;;;;;26.14;54.14;98239.56;7309938;19;129278;-39
2023/07/25 11:00:10;;;;;;;55.40;3.23;;;;;;;26.11;54.46;98229.44;7309287;19;129054;-46
2023/07/25 11:02:39;;;;;;;31.67;1.83;;;;;;;26.15;54.15;98238.53;7309264;19;130152;-35
2023/07/25 11:05:13;;;;;;;27.35;1.73;;;;;;;26.15;54.63;98235.91;7309236;19;130201;-33
2023/07/25 11:07:53;;;;;;;69.53;3.60;;;;;;;26.19;55.00;98233.69;7309500;19;131309;-37
2023/07/25 11:10:27;;;;;;;74.10;4.13;;;;;;;26.16;55.01;98231.47;7310580;19;131252;-32
2023/07/25 11:12:53;;;;;;;25.08;1.50;;;;;;;26.10;54.96;98219.88;7308872;19;129154;-33
2023/07/25 11:15:19;;;;;;;48.10;2.85;;;;;;;26.14;54.45;98231.66;7308873;19;130315;-37